sensor_id;sensor_type;location;lat;lon;timestamp;P1;durP1;ratioP1;P2;durP2;ratioP2
63438;SDS011;49567;48.958;8.294;2023-04-10T00:02:15;1999.90;;;999.90;;
63438;SDS011;49567;48.958;8.294;2023-04-10T00:04:41;1999.90;;;999.90;;
63438;SDS011;49567;48.958;8.294;2023-04-10T00:07:06;1999.90;;;999.90;;
63438;SDS011;49567;48.958;8.294;2023-04-10T00:09:31;1999.90;;;999.90;;
63438;SDS011;49567;48.958;8.294;2023-04-10T00:11:56;1999.90;;;999.90;;
63438;SDS011;49567;48.958;8.294;2023-04-10T00:14:22;1999.90;;;999.90;;
63438;SDS011;49567;48.958;8.294;2023-04-10T00:16:48;1999.90;;;999.90;;
63438;SDS011;49567;48.958;8.294;2023-04-10T00:19:14;1999.90;;;999.90;;
63438;SDS011;49567;48.958;8.294;2023-04-10T00:21:40;1999.90;;;999.90;;
63438;SDS011;49567;48.958;8.294;2023-04-10T00:24:06;1999.90;;;999.90;;
63438;SDS011;49567;48.958;8.294;2023-04-10T00:26:31;1999.90;;;999.90;;
63438;SDS011;49567;48.958;8.294;2023-04-10T00:28:56;1999.90;;;999.90;;
63438;SDS011;49567;48.958;8.294;2023-04-10T00:31:22;1999.90;;;999.90;;
63438;SDS011;49567;48.958;8.294;2023-04-10T00:33:47;1999.90;;;999.90;;
63438;SDS011;49567;48.958;8.294;2023-04-10T00:36:12;1999.90;;;999.90;;
63438;SDS011;49567;48.958;8.294;2023-04-10T00:38:38;1999.90;;;999.90;;
63438;SDS011;49567;48.958;8.294;2023-04-10T00:41:03;1999.90;;;999.90;;
63438;SDS011;49567;48.958;8.294;2023-04-10T00:43:29;1999.90;;;999.90;;
63438;SDS011;49567;48.958;8.294;2023-04-10T00:45:55;1999.90;;;999.90;;
63438;SDS011;49567;48.958;8.294;2023-04-10T00:48:20;1999.90;;;999.90;;
63438;SDS011;49567;48.958;8.294;2023-04-10T00:50:46;1999.90;;;999.90;;
63438;SDS011;49567;48.958;8.294;2023-04-10T00:53:11;1999.90;;;999.90;;
63438;SDS011;49567;48.958;8.294;2023-04-10T00:55:36;1999.90;;;999.90;;
63438;SDS011;49567;48.958;8.294;2023-04-10T00:58:02;1999.90;;;999.90;;
63438;SDS011;49567;48.958;8.294;2023-04-10T01:00:30;1999.90;;;999.90;;
63438;SDS011;49567;48.958;8.294;2023-04-10T01:02:56;1999.90;;;999.90;;
63438;SDS011;49567;48.958;8.294;2023-04-10T01:05:21;1999.90;;;999.90;;
63438;SDS011;49567;48.958;8.294;2023-04-10T01:07:59;1999.90;;;999.90;;
63438;SDS011;49567;48.958;8.294;2023-04-10T01:13:31;1999.90;;;999.90;;
63438;SDS011;49567;48.958;8.294;2023-04-10T01:16:14;1999.90;;;985.80;;
63438;SDS011;49567;48.958;8.294;2023-04-10T01:18:48;1999.90;;;999.90;;
63438;SDS011;49567;48.958;8.294;2023-04-10T01:21:19;1999.90;;;999.90;;
63438;SDS011;49567;48.958;8.294;2023-04-10T01:24:02;1739.50;;;999.90;;
63438;SDS011;49567;48.958;8.294;2023-04-10T01:29:12;1999.90;;;999.90;;
63438;SDS011;49567;48.958;8.294;2023-04-10T01:31:45;1645.82;;;999.90;;
63438;SDS011;49567;48.958;8.294;2023-04-10T01:34:14;1541.68;;;999.90;;
63438;SDS011;49567;48.958;8.294;2023-04-10T01:36:52;1108.50;;;999.90;;
63438;SDS011;49567;48.958;8.294;2023-04-10T01:39:20;1147.78;;;999.90;;
63438;SDS011;49567;48.958;8.294;2023-04-10T01:41:49;1144.82;;;999.90;;
63438;SDS011;49567;48.958;8.294;2023-04-10T01:44:17;826.47;;;769.30;;
63438;SDS011;49567;48.958;8.294;2023-04-10T01:46:45;683.90;;;640.72;;
63438;SDS011;49567;48.958;8.294;2023-04-10T01:49:11;601.15;;;564.97;;
63438;SDS011;49567;48.958;8.294;2023-04-10T01:51:37;59.30;;;56.08;;
63438;SDS011;49567;48.958;8.294;2023-04-10T01:54:03;13.47;;;12.37;;
63438;SDS011;49567;48.958;8.294;2023-04-10T01:56:29;21.83;;;20.33;;
63438;SDS011;49567;48.958;8.294;2023-04-10T01:58:56;10.60;;;9.65;;
63438;SDS011;49567;48.958;8.294;2023-04-10T02:01:22;9.40;;;8.00;;
63438;SDS011;49567;48.958;8.294;2023-04-10T02:03:48;7.60;;;6.90;;
63438;SDS011;49567;48.958;8.294;2023-04-10T02:06:14;7.40;;;6.55;;
63438;SDS011;49567;48.958;8.294;2023-04-10T02:08:55;7.37;;;6.37;;
63438;SDS011;49567;48.958;8.294;2023-04-10T02:11:33;6.37;;;5.50;;
63438;SDS011;49567;48.958;8.294;2023-04-10T02:14:22;7.13;;;6.13;;
63438;SDS011;49567;48.958;8.294;2023-04-10T02:16:52;8.43;;;6.40;;
63438;SDS011;49567;48.958;8.294;2023-04-10T02:19:20;7.90;;;6.15;;
63438;SDS011;49567;48.958;8.294;2023-04-10T02:21:47;7.78;;;6.47;;
63438;SDS011;49567;48.958;8.294;2023-04-10T02:24:13;9.68;;;6.93;;
63438;SDS011;49567;48.958;8.294;2023-04-10T02:26:43;10.27;;;7.20;;
63438;SDS011;49567;48.958;8.294;2023-04-10T02:29:15;9.65;;;7.43;;
63438;SDS011;49567;48.958;8.294;2023-04-10T02:31:41;7.20;;;6.35;;
63438;SDS011;49567;48.958;8.294;2023-04-10T02:34:07;7.75;;;6.57;;
63438;SDS011;49567;48.958;8.294;2023-04-10T02:36:33;9.73;;;6.60;;
63438;SDS011;49567;48.958;8.294;2023-04-10T02:39:01;8.30;;;6.68;;
63438;SDS011;49567;48.958;8.294;2023-04-10T02:41:27;7.88;;;6.28;;
63438;SDS011;49567;48.958;8.294;2023-04-10T02:43:53;9.60;;;7.07;;
63438;SDS011;49567;48.958;8.294;2023-04-10T02:46:18;7.13;;;6.23;;
63438;SDS011;49567;48.958;8.294;2023-04-10T02:48:43;7.90;;;6.87;;
63438;SDS011;49567;48.958;8.294;2023-04-10T02:51:09;7.93;;;6.53;;
63438;SDS011;49567;48.958;8.294;2023-04-10T02:53:34;8.47;;;6.77;;
63438;SDS011;49567;48.958;8.294;2023-04-10T02:55:59;7.93;;;6.87;;
63438;SDS011;49567;48.958;8.294;2023-04-10T02:58:26;8.23;;;6.93;;
63438;SDS011;49567;48.958;8.294;2023-04-10T03:00:51;8.02;;;6.47;;
63438;SDS011;49567;48.958;8.294;2023-04-10T03:03:17;9.57;;;6.57;;
63438;SDS011;49567;48.958;8.294;2023-04-10T03:05:45;8.02;;;6.60;;
63438;SDS011;49567;48.958;8.294;2023-04-10T03:08:12;7.80;;;6.53;;
63438;SDS011;49567;48.958;8.294;2023-04-10T03:10:38;8.00;;;6.60;;
63438;SDS011;49567;48.958;8.294;2023-04-10T03:13:03;6.93;;;6.00;;
63438;SDS011;49567;48.958;8.294;2023-04-10T03:15:28;8.23;;;6.17;;
63438;SDS011;49567;48.958;8.294;2023-04-10T03:17:54;8.17;;;6.60;;
63438;SDS011;49567;48.958;8.294;2023-04-10T03:20:20;6.90;;;5.90;;
63438;SDS011;49567;48.958;8.294;2023-04-10T03:22:45;6.70;;;5.70;;
63438;SDS011;49567;48.958;8.294;2023-04-10T03:25:11;7.23;;;6.43;;
63438;SDS011;49567;48.958;8.294;2023-04-10T03:27:36;6.77;;;5.57;;
63438;SDS011;49567;48.958;8.294;2023-04-10T03:30:02;5.90;;;5.40;;
63438;SDS011;49567;48.958;8.294;2023-04-10T03:32:28;6.00;;;5.40;;
63438;SDS011;49567;48.958;8.294;2023-04-10T03:34:55;5.97;;;5.30;;
63438;SDS011;49567;48.958;8.294;2023-04-10T03:37:22;7.35;;;5.80;;
63438;SDS011;49567;48.958;8.294;2023-04-10T03:39:47;5.90;;;5.30;;
63438;SDS011;49567;48.958;8.294;2023-04-10T03:42:13;5.90;;;5.40;;
63438;SDS011;49567;48.958;8.294;2023-04-10T03:44:38;6.90;;;5.60;;
63438;SDS011;49567;48.958;8.294;2023-04-10T03:47:03;5.57;;;4.97;;
63438;SDS011;49567;48.958;8.294;2023-04-10T03:49:28;6.30;;;5.13;;
63438;SDS011;49567;48.958;8.294;2023-04-10T03:51:56;8.68;;;5.97;;
63438;SDS011;49567;48.958;8.294;2023-04-10T03:54:21;5.63;;;5.13;;
63438;SDS011;49567;48.958;8.294;2023-04-10T03:56:47;6.37;;;5.37;;
63438;SDS011;49567;48.958;8.294;2023-04-10T03:59:12;6.80;;;6.00;;
63438;SDS011;49567;48.958;8.294;2023-04-10T04:01:37;6.33;;;5.70;;
63438;SDS011;49567;48.958;8.294;2023-04-10T04:04:03;6.37;;;5.63;;
63438;SDS011;49567;48.958;8.294;2023-04-10T04:06:28;6.93;;;5.63;;
63438;SDS011;49567;48.958;8.294;2023-04-10T04:08:55;7.43;;;6.13;;
63438;SDS011;49567;48.958;8.294;2023-04-10T04:11:20;6.00;;;5.37;;
63438;SDS011;49567;48.958;8.294;2023-04-10T04:13:45;6.73;;;5.73;;
63438;SDS011;49567;48.958;8.294;2023-04-10T04:16:10;6.13;;;5.50;;
63438;SDS011;49567;48.958;8.294;2023-04-10T04:18:37;6.40;;;5.37;;
63438;SDS011;49567;48.958;8.294;2023-04-10T04:21:02;6.10;;;5.50;;
63438;SDS011;49567;48.958;8.294;2023-04-10T04:23:27;5.97;;;5.35;;
63438;SDS011;49567;48.958;8.294;2023-04-10T04:25:53;6.80;;;5.20;;
63438;SDS011;49567;48.958;8.294;2023-04-10T04:28:21;6.60;;;5.90;;
63438;SDS011;49567;48.958;8.294;2023-04-10T04:30:46;6.15;;;5.55;;
63438;SDS011;49567;48.958;8.294;2023-04-10T04:33:11;6.67;;;6.03;;
63438;SDS011;49567;48.958;8.294;2023-04-10T04:35:37;5.90;;;5.40;;
63438;SDS011;49567;48.958;8.294;2023-04-10T04:38:02;6.70;;;5.70;;
63438;SDS011;49567;48.958;8.294;2023-04-10T04:40:27;5.97;;;5.37;;
63438;SDS011;49567;48.958;8.294;2023-04-10T04:42:53;6.55;;;5.45;;
63438;SDS011;49567;48.958;8.294;2023-04-10T04:45:18;5.90;;;5.33;;
63438;SDS011;49567;48.958;8.294;2023-04-10T04:47:45;6.90;;;5.53;;
63438;SDS011;49567;48.958;8.294;2023-04-10T04:50:10;6.03;;;5.43;;
63438;SDS011;49567;48.958;8.294;2023-04-10T04:52:36;8.10;;;5.68;;
63438;SDS011;49567;48.958;8.294;2023-04-10T04:55:01;6.10;;;5.33;;
63438;SDS011;49567;48.958;8.294;2023-04-10T04:57:26;7.18;;;5.82;;
63438;SDS011;49567;48.958;8.294;2023-04-10T04:59:52;7.07;;;5.37;;
63438;SDS011;49567;48.958;8.294;2023-04-10T05:02:17;6.28;;;5.43;;
63438;SDS011;49567;48.958;8.294;2023-04-10T05:04:42;6.80;;;5.77;;
63438;SDS011;49567;48.958;8.294;2023-04-10T05:07:08;8.43;;;6.33;;
63438;SDS011;49567;48.958;8.294;2023-04-10T05:09:34;6.73;;;6.03;;
63438;SDS011;49567;48.958;8.294;2023-04-10T05:11:59;6.47;;;5.80;;
63438;SDS011;49567;48.958;8.294;2023-04-10T05:14:25;7.30;;;6.17;;
63438;SDS011;49567;48.958;8.294;2023-04-10T05:16:50;5.63;;;5.03;;
63438;SDS011;49567;48.958;8.294;2023-04-10T05:19:15;6.03;;;5.43;;
63438;SDS011;49567;48.958;8.294;2023-04-10T05:21:41;7.07;;;6.10;;
63438;SDS011;49567;48.958;8.294;2023-04-10T05:24:06;7.90;;;5.60;;
63438;SDS011;49567;48.958;8.294;2023-04-10T05:26:31;10.38;;;7.95;;
63438;SDS011;49567;48.958;8.294;2023-04-10T05:28:57;20.97;;;11.83;;
63438;SDS011;49567;48.958;8.294;2023-04-10T05:31:22;35.17;;;16.58;;
63438;SDS011;49567;48.958;8.294;2023-04-10T05:33:47;19.83;;;10.17;;
63438;SDS011;49567;48.958;8.294;2023-04-10T05:36:13;11.82;;;7.90;;
63438;SDS011;49567;48.958;8.294;2023-04-10T05:38:38;14.60;;;8.13;;
63438;SDS011;49567;48.958;8.294;2023-04-10T05:41:03;35.75;;;17.20;;
63438;SDS011;49567;48.958;8.294;2023-04-10T05:43:28;32.50;;;15.93;;
63438;SDS011;49567;48.958;8.294;2023-04-10T05:45:54;24.80;;;13.50;;
63438;SDS011;49567;48.958;8.294;2023-04-10T05:48:19;27.87;;;13.20;;
63438;SDS011;49567;48.958;8.294;2023-04-10T05:50:45;18.10;;;11.35;;
63438;SDS011;49567;48.958;8.294;2023-04-10T05:53:12;17.23;;;10.02;;
63438;SDS011;49567;48.958;8.294;2023-04-10T05:55:38;11.35;;;6.97;;
63438;SDS011;49567;48.958;8.294;2023-04-10T05:58:04;18.33;;;9.32;;
63438;SDS011;49567;48.958;8.294;2023-04-10T06:00:29;17.67;;;9.30;;
63438;SDS011;49567;48.958;8.294;2023-04-10T06:02:55;30.93;;;13.60;;
63438;SDS011;49567;48.958;8.294;2023-04-10T06:05:20;11.40;;;7.72;;
63438;SDS011;49567;48.958;8.294;2023-04-10T06:07:45;21.37;;;10.90;;
63438;SDS011;49567;48.958;8.294;2023-04-10T06:10:11;48.80;;;21.30;;
63438;SDS011;49567;48.958;8.294;2023-04-10T06:12:36;14.63;;;8.87;;
63438;SDS011;49567;48.958;8.294;2023-04-10T06:15:01;15.43;;;7.73;;
63438;SDS011;49567;48.958;8.294;2023-04-10T06:17:27;35.03;;;16.67;;
63438;SDS011;49567;48.958;8.294;2023-04-10T06:19:52;7.40;;;5.77;;
63438;SDS011;49567;48.958;8.294;2023-04-10T06:22:17;8.50;;;5.73;;
63438;SDS011;49567;48.958;8.294;2023-04-10T06:24:43;5.90;;;5.00;;
63438;SDS011;49567;48.958;8.294;2023-04-10T06:27:08;5.23;;;4.73;;
63438;SDS011;49567;48.958;8.294;2023-04-10T06:29:33;7.20;;;5.70;;
63438;SDS011;49567;48.958;8.294;2023-04-10T06:31:58;6.13;;;5.50;;
63438;SDS011;49567;48.958;8.294;2023-04-10T06:34:24;6.32;;;5.72;;
63438;SDS011;49567;48.958;8.294;2023-04-10T06:36:50;5.83;;;5.10;;
63438;SDS011;49567;48.958;8.294;2023-04-10T06:39:15;6.15;;;5.63;;
63438;SDS011;49567;48.958;8.294;2023-04-10T06:41:41;7.35;;;6.65;;
63438;SDS011;49567;48.958;8.294;2023-04-10T06:44:09;5.50;;;5.00;;
63438;SDS011;49567;48.958;8.294;2023-04-10T06:46:34;5.35;;;4.57;;
63438;SDS011;49567;48.958;8.294;2023-04-10T06:49:00;5.30;;;4.80;;
63438;SDS011;49567;48.958;8.294;2023-04-10T06:51:25;5.32;;;4.90;;
63438;SDS011;49567;48.958;8.294;2023-04-10T06:53:51;5.00;;;4.60;;
63438;SDS011;49567;48.958;8.294;2023-04-10T06:56:16;5.77;;;4.63;;
63438;SDS011;49567;48.958;8.294;2023-04-10T06:58:44;5.50;;;5.10;;
63438;SDS011;49567;48.958;8.294;2023-04-10T07:01:10;106.97;;;101.53;;
63438;SDS011;49567;48.958;8.294;2023-04-10T07:03:35;431.87;;;407.37;;
63438;SDS011;49567;48.958;8.294;2023-04-10T07:06:00;1114.07;;;999.90;;
63438;SDS011;49567;48.958;8.294;2023-04-10T07:08:27;1166.28;;;999.90;;
63438;SDS011;49567;48.958;8.294;2023-04-10T07:10:52;1031.03;;;945.53;;
63438;SDS011;49567;48.958;8.294;2023-04-10T07:13:17;1999.90;;;999.90;;
63438;SDS011;49567;48.958;8.294;2023-04-10T07:15:42;1999.90;;;999.90;;
63438;SDS011;49567;48.958;8.294;2023-04-10T07:18:08;1999.90;;;999.90;;
63438;SDS011;49567;48.958;8.294;2023-04-10T07:20:33;1672.30;;;727.20;;
63438;SDS011;49567;48.958;8.294;2023-04-10T07:22:58;1999.90;;;999.90;;
63438;SDS011;49567;48.958;8.294;2023-04-10T07:25:24;1999.90;;;999.90;;
63438;SDS011;49567;48.958;8.294;2023-04-10T07:27:49;1999.90;;;999.90;;
63438;SDS011;49567;48.958;8.294;2023-04-10T07:30:15;1999.90;;;999.90;;
63438;SDS011;49567;48.958;8.294;2023-04-10T07:32:43;1999.90;;;999.90;;
63438;SDS011;49567;48.958;8.294;2023-04-10T07:35:09;1999.90;;;999.90;;
63438;SDS011;49567;48.958;8.294;2023-04-10T07:37:34;1999.90;;;999.90;;
63438;SDS011;49567;48.958;8.294;2023-04-10T07:39:59;1999.90;;;999.90;;
63438;SDS011;49567;48.958;8.294;2023-04-10T07:42:26;1999.90;;;999.90;;
63438;SDS011;49567;48.958;8.294;2023-04-10T07:44:51;1999.90;;;999.90;;
63438;SDS011;49567;48.958;8.294;2023-04-10T07:47:16;1999.90;;;999.90;;
63438;SDS011;49567;48.958;8.294;2023-04-10T07:49:42;1999.90;;;999.90;;
63438;SDS011;49567;48.958;8.294;2023-04-10T07:52:07;1999.90;;;999.90;;
63438;SDS011;49567;48.958;8.294;2023-04-10T07:54:33;1999.90;;;999.90;;
63438;SDS011;49567;48.958;8.294;2023-04-10T07:56:58;1999.90;;;999.90;;
63438;SDS011;49567;48.958;8.294;2023-04-10T07:59:24;1999.90;;;999.90;;
63438;SDS011;49567;48.958;8.294;2023-04-10T08:01:50;1999.90;;;999.90;;
63438;SDS011;49567;48.958;8.294;2023-04-10T08:04:15;1999.90;;;999.90;;
63438;SDS011;49567;48.958;8.294;2023-04-10T08:06:41;1999.90;;;999.90;;
63438;SDS011;49567;48.958;8.294;2023-04-10T08:09:06;1999.90;;;999.90;;
63438;SDS011;49567;48.958;8.294;2023-04-10T08:11:32;1999.90;;;999.90;;
63438;SDS011;49567;48.958;8.294;2023-04-10T08:13:59;1999.90;;;999.90;;
63438;SDS011;49567;48.958;8.294;2023-04-10T08:16:26;1999.90;;;999.90;;
63438;SDS011;49567;48.958;8.294;2023-04-10T08:18:55;1999.90;;;999.90;;
63438;SDS011;49567;48.958;8.294;2023-04-10T08:21:21;1999.90;;;999.90;;
63438;SDS011;49567;48.958;8.294;2023-04-10T08:23:58;1999.90;;;693.08;;
63438;SDS011;49567;48.958;8.294;2023-04-10T08:26:27;1999.90;;;686.25;;
63438;SDS011;49567;48.958;8.294;2023-04-10T08:28:54;1999.90;;;591.17;;
63438;SDS011;49567;48.958;8.294;2023-04-10T08:31:21;1999.90;;;815.92;;
63438;SDS011;49567;48.958;8.294;2023-04-10T08:33:48;1999.90;;;946.13;;
63438;SDS011;49567;48.958;8.294;2023-04-10T08:36:14;1271.30;;;401.05;;
63438;SDS011;49567;48.958;8.294;2023-04-10T08:38:42;1700.97;;;499.40;;
63438;SDS011;49567;48.958;8.294;2023-04-10T08:41:15;1182.70;;;406.17;;
63438;SDS011;49567;48.958;8.294;2023-04-10T08:43:42;680.03;;;248.10;;
63438;SDS011;49567;48.958;8.294;2023-04-10T08:46:09;79.78;;;46.47;;
63438;SDS011;49567;48.958;8.294;2023-04-10T08:48:38;4.45;;;3.63;;
63438;SDS011;49567;48.958;8.294;2023-04-10T08:51:12;2.65;;;2.45;;
63438;SDS011;49567;48.958;8.294;2023-04-10T08:53:40;2.40;;;2.17;;
63438;SDS011;49567;48.958;8.294;2023-04-10T08:56:08;2.30;;;2.20;;
63438;SDS011;49567;48.958;8.294;2023-04-10T08:58:37;2.40;;;2.30;;
63438;SDS011;49567;48.958;8.294;2023-04-10T09:01:03;2.03;;;1.93;;
63438;SDS011;49567;48.958;8.294;2023-04-10T09:03:30;2.57;;;2.47;;
63438;SDS011;49567;48.958;8.294;2023-04-10T09:05:55;2.80;;;2.37;;
63438;SDS011;49567;48.958;8.294;2023-04-10T09:08:20;2.40;;;2.30;;
63438;SDS011;49567;48.958;8.294;2023-04-10T09:10:46;3.13;;;2.83;;
63438;SDS011;49567;48.958;8.294;2023-04-10T09:13:11;2.37;;;2.27;;
63438;SDS011;49567;48.958;8.294;2023-04-10T09:15:55;2.50;;;2.37;;
63438;SDS011;49567;48.958;8.294;2023-04-10T09:18:22;2.13;;;1.92;;
63438;SDS011;49567;48.958;8.294;2023-04-10T09:21:05;2.17;;;2.08;;
63438;SDS011;49567;48.958;8.294;2023-04-10T09:23:31;2.20;;;2.10;;
63438;SDS011;49567;48.958;8.294;2023-04-10T09:25:56;2.30;;;2.20;;
63438;SDS011;49567;48.958;8.294;2023-04-10T09:28:21;2.13;;;1.97;;
63438;SDS011;49567;48.958;8.294;2023-04-10T09:30:47;2.07;;;1.97;;
63438;SDS011;49567;48.958;8.294;2023-04-10T09:35:47;2.03;;;1.92;;
63438;SDS011;49567;48.958;8.294;2023-04-10T09:38:13;2.27;;;2.13;;
63438;SDS011;49567;48.958;8.294;2023-04-10T09:40:42;1.92;;;1.85;;
63438;SDS011;49567;48.958;8.294;2023-04-10T09:43:17;2.00;;;1.90;;
63438;SDS011;49567;48.958;8.294;2023-04-10T09:45:56;2.22;;;2.13;;
63438;SDS011;49567;48.958;8.294;2023-04-10T09:48:22;2.10;;;2.00;;
63438;SDS011;49567;48.958;8.294;2023-04-10T09:50:48;2.17;;;2.08;;
63438;SDS011;49567;48.958;8.294;2023-04-10T09:53:15;1.90;;;1.90;;
63438;SDS011;49567;48.958;8.294;2023-04-10T09:55:43;2.25;;;2.15;;
63438;SDS011;49567;48.958;8.294;2023-04-10T09:58:10;1.98;;;1.88;;
63438;SDS011;49567;48.958;8.294;2023-04-10T10:00:45;2.00;;;1.90;;
63438;SDS011;49567;48.958;8.294;2023-04-10T10:03:12;1.73;;;1.73;;
63438;SDS011;49567;48.958;8.294;2023-04-10T10:05:40;1.90;;;1.80;;
63438;SDS011;49567;48.958;8.294;2023-04-10T10:08:13;1.80;;;1.70;;
63438;SDS011;49567;48.958;8.294;2023-04-10T10:11:01;1.80;;;1.70;;
63438;SDS011;49567;48.958;8.294;2023-04-10T10:16:12;1.75;;;1.70;;
63438;SDS011;49567;48.958;8.294;2023-04-10T10:21:29;2.00;;;1.90;;
63438;SDS011;49567;48.958;8.294;2023-04-10T10:23:57;2.10;;;2.00;;
63438;SDS011;49567;48.958;8.294;2023-04-10T10:26:25;1.85;;;1.77;;
63438;SDS011;49567;48.958;8.294;2023-04-10T10:28:53;1.70;;;1.70;;
63438;SDS011;49567;48.958;8.294;2023-04-10T10:31:20;1.58;;;1.58;;
63438;SDS011;49567;48.958;8.294;2023-04-10T10:33:47;1.73;;;1.57;;
63438;SDS011;49567;48.958;8.294;2023-04-10T10:36:16;2.00;;;1.90;;
63438;SDS011;49567;48.958;8.294;2023-04-10T10:38:47;1.77;;;1.73;;
63438;SDS011;49567;48.958;8.294;2023-04-10T10:41:40;1.80;;;1.80;;
63438;SDS011;49567;48.958;8.294;2023-04-10T10:44:12;2.13;;;1.92;;
63438;SDS011;49567;48.958;8.294;2023-04-10T10:49:13;1.90;;;1.90;;
63438;SDS011;49567;48.958;8.294;2023-04-10T10:51:46;1.90;;;1.80;;
63438;SDS011;49567;48.958;8.294;2023-04-10T10:54:31;2.42;;;2.28;;
63438;SDS011;49567;48.958;8.294;2023-04-10T10:56:58;3.10;;;2.20;;
63438;SDS011;49567;48.958;8.294;2023-04-10T11:02:17;1.70;;;1.60;;
63438;SDS011;49567;48.958;8.294;2023-04-10T11:04:47;1.60;;;1.60;;
63438;SDS011;49567;48.958;8.294;2023-04-10T11:07:13;1.70;;;1.70;;
63438;SDS011;49567;48.958;8.294;2023-04-10T11:09:52;1.90;;;1.80;;
63438;SDS011;49567;48.958;8.294;2023-04-10T11:12:21;1.60;;;1.60;;
63438;SDS011;49567;48.958;8.294;2023-04-10T11:14:58;1.40;;;1.40;;
63438;SDS011;49567;48.958;8.294;2023-04-10T11:20:13;1.50;;;1.50;;
63438;SDS011;49567;48.958;8.294;2023-04-10T11:25:50;1.42;;;1.40;;
63438;SDS011;49567;48.958;8.294;2023-04-10T11:31:17;1.40;;;1.40;;
63438;SDS011;49567;48.958;8.294;2023-04-10T11:36:21;1.30;;;1.30;;
63438;SDS011;49567;48.958;8.294;2023-04-10T11:38:53;1.33;;;1.33;;
63438;SDS011;49567;48.958;8.294;2023-04-10T11:41:20;1.88;;;1.88;;
63438;SDS011;49567;48.958;8.294;2023-04-10T11:43:49;1.80;;;1.70;;
63438;SDS011;49567;48.958;8.294;2023-04-10T11:46:15;1.45;;;1.45;;
63438;SDS011;49567;48.958;8.294;2023-04-10T11:48:41;1.50;;;1.50;;
63438;SDS011;49567;48.958;8.294;2023-04-10T11:51:07;1.80;;;1.70;;
63438;SDS011;49567;48.958;8.294;2023-04-10T11:53:33;1.70;;;1.70;;
63438;SDS011;49567;48.958;8.294;2023-04-10T11:55:59;1.50;;;1.50;;
63438;SDS011;49567;48.958;8.294;2023-04-10T11:58:25;1.60;;;1.60;;
63438;SDS011;49567;48.958;8.294;2023-04-10T12:01:09;1.60;;;1.60;;
63438;SDS011;49567;48.958;8.294;2023-04-10T12:03:41;1.50;;;1.45;;
63438;SDS011;49567;48.958;8.294;2023-04-10T12:06:09;1.60;;;1.60;;
63438;SDS011;49567;48.958;8.294;2023-04-10T12:08:36;1.42;;;1.42;;
63438;SDS011;49567;48.958;8.294;2023-04-10T12:11:03;1.50;;;1.50;;
63438;SDS011;49567;48.958;8.294;2023-04-10T12:13:29;2.70;;;2.00;;
63438;SDS011;49567;48.958;8.294;2023-04-10T12:16:02;1.40;;;1.40;;
63438;SDS011;49567;48.958;8.294;2023-04-10T12:18:30;1.55;;;1.55;;
63438;SDS011;49567;48.958;8.294;2023-04-10T12:20:56;1.42;;;1.42;;
63438;SDS011;49567;48.958;8.294;2023-04-10T12:23:23;1.50;;;1.50;;
63438;SDS011;49567;48.958;8.294;2023-04-10T12:25:49;1.48;;;1.42;;
63438;SDS011;49567;48.958;8.294;2023-04-10T12:28:18;1.50;;;1.50;;
63438;SDS011;49567;48.958;8.294;2023-04-10T12:30:48;1.58;;;1.58;;
63438;SDS011;49567;48.958;8.294;2023-04-10T12:33:19;1.70;;;1.70;;
63438;SDS011;49567;48.958;8.294;2023-04-10T12:35:46;1.38;;;1.38;;
63438;SDS011;49567;48.958;8.294;2023-04-10T12:38:11;1.50;;;1.50;;
63438;SDS011;49567;48.958;8.294;2023-04-10T12:40:36;1.47;;;1.47;;
63438;SDS011;49567;48.958;8.294;2023-04-10T12:43:05;1.60;;;1.60;;
63438;SDS011;49567;48.958;8.294;2023-04-10T12:45:43;2.05;;;1.95;;
63438;SDS011;49567;48.958;8.294;2023-04-10T12:48:09;1.35;;;1.35;;
63438;SDS011;49567;48.958;8.294;2023-04-10T12:50:44;1.63;;;1.53;;
63438;SDS011;49567;48.958;8.294;2023-04-10T12:53:11;1.70;;;1.60;;
63438;SDS011;49567;48.958;8.294;2023-04-10T12:55:37;1.52;;;1.52;;
63438;SDS011;49567;48.958;8.294;2023-04-10T12:58:16;1.23;;;1.23;;
63438;SDS011;49567;48.958;8.294;2023-04-10T13:00:42;1.60;;;1.50;;
63438;SDS011;49567;48.958;8.294;2023-04-10T13:03:07;1.67;;;1.57;;
63438;SDS011;49567;48.958;8.294;2023-04-10T13:05:33;1.70;;;1.70;;
63438;SDS011;49567;48.958;8.294;2023-04-10T13:07:58;1.20;;;1.20;;
63438;SDS011;49567;48.958;8.294;2023-04-10T13:10:23;1.90;;;1.80;;
63438;SDS011;49567;48.958;8.294;2023-04-10T13:12:48;1.23;;;1.23;;
63438;SDS011;49567;48.958;8.294;2023-04-10T13:15:14;1.60;;;1.60;;
63438;SDS011;49567;48.958;8.294;2023-04-10T13:17:40;1.40;;;1.40;;
63438;SDS011;49567;48.958;8.294;2023-04-10T13:20:06;1.40;;;1.40;;
63438;SDS011;49567;48.958;8.294;2023-04-10T13:22:33;1.50;;;1.50;;
63438;SDS011;49567;48.958;8.294;2023-04-10T13:24:58;1.57;;;1.57;;
63438;SDS011;49567;48.958;8.294;2023-04-10T13:27:23;1.33;;;1.33;;
63438;SDS011;49567;48.958;8.294;2023-04-10T13:29:49;1.27;;;1.27;;
63438;SDS011;49567;48.958;8.294;2023-04-10T13:32:14;1.23;;;1.23;;
63438;SDS011;49567;48.958;8.294;2023-04-10T13:34:39;1.23;;;1.23;;
63438;SDS011;49567;48.958;8.294;2023-04-10T13:37:04;2.30;;;1.20;;
63438;SDS011;49567;48.958;8.294;2023-04-10T13:39:30;1.13;;;1.13;;
63438;SDS011;49567;48.958;8.294;2023-04-10T13:41:55;1.10;;;1.10;;
63438;SDS011;49567;48.958;8.294;2023-04-10T13:44:21;1.25;;;1.25;;
63438;SDS011;49567;48.958;8.294;2023-04-10T13:46:46;1.27;;;1.27;;
63438;SDS011;49567;48.958;8.294;2023-04-10T13:49:12;1.20;;;1.20;;
63438;SDS011;49567;48.958;8.294;2023-04-10T13:51:41;1.42;;;1.42;;
63438;SDS011;49567;48.958;8.294;2023-04-10T13:54:06;1.20;;;1.20;;
63438;SDS011;49567;48.958;8.294;2023-04-10T13:56:32;1.20;;;1.20;;
63438;SDS011;49567;48.958;8.294;2023-04-10T13:58:57;1.30;;;1.17;;
63438;SDS011;49567;48.958;8.294;2023-04-10T14:01:23;1.10;;;1.10;;
63438;SDS011;49567;48.958;8.294;2023-04-10T14:03:48;1.30;;;1.30;;
63438;SDS011;49567;48.958;8.294;2023-04-10T14:06:13;1.20;;;1.20;;
63438;SDS011;49567;48.958;8.294;2023-04-10T14:08:39;1.97;;;1.87;;
63438;SDS011;49567;48.958;8.294;2023-04-10T14:11:04;1.20;;;1.20;;
63438;SDS011;49567;48.958;8.294;2023-04-10T14:13:30;1.60;;;1.50;;
63438;SDS011;49567;48.958;8.294;2023-04-10T14:15:55;2.03;;;1.43;;
63438;SDS011;49567;48.958;8.294;2023-04-10T14:18:20;1.33;;;1.33;;
63438;SDS011;49567;48.958;8.294;2023-04-10T14:20:45;1.50;;;1.50;;
63438;SDS011;49567;48.958;8.294;2023-04-10T14:23:11;1.30;;;1.30;;
63438;SDS011;49567;48.958;8.294;2023-04-10T14:25:43;1.23;;;1.23;;
63438;SDS011;49567;48.958;8.294;2023-04-10T14:28:09;1.38;;;1.38;;
63438;SDS011;49567;48.958;8.294;2023-04-10T14:30:41;1.23;;;1.23;;
63438;SDS011;49567;48.958;8.294;2023-04-10T14:33:07;2.15;;;2.05;;
63438;SDS011;49567;48.958;8.294;2023-04-10T14:35:32;1.50;;;1.48;;
63438;SDS011;49567;48.958;8.294;2023-04-10T14:38:00;1.60;;;1.60;;
63438;SDS011;49567;48.958;8.294;2023-04-10T14:40:26;1.70;;;1.60;;
63438;SDS011;49567;48.958;8.294;2023-04-10T14:42:51;1.45;;;1.45;;
63438;SDS011;49567;48.958;8.294;2023-04-10T14:45:17;1.53;;;1.43;;
63438;SDS011;49567;48.958;8.294;2023-04-10T14:47:43;1.50;;;1.50;;
63438;SDS011;49567;48.958;8.294;2023-04-10T14:50:09;1.60;;;1.50;;
63438;SDS011;49567;48.958;8.294;2023-04-10T14:52:34;1.77;;;1.77;;
63438;SDS011;49567;48.958;8.294;2023-04-10T14:55:00;1.53;;;1.50;;
63438;SDS011;49567;48.958;8.294;2023-04-10T14:57:25;1.60;;;1.50;;
63438;SDS011;49567;48.958;8.294;2023-04-10T14:59:50;1.75;;;1.73;;
63438;SDS011;49567;48.958;8.294;2023-04-10T15:02:15;1.70;;;1.70;;